Time;durP1;ratioP1;P1;durP2;ratioP2;P2;SDS_P1;SDS_P2;PMS_P1;PMS_P2;Temp;Humidity;BMP_temperature;BMP_pressure;BME280_temperature;BME280_humidity;BME280_pressure;Samples;Min_cycle;Max_cycle;Signal;HPM_P1;HPM_P2
2022/03/06 00:00:14;;;;;;;;;93.00;66.00;;;;;8.13;73.45;101804.69;5011528;28;47817;-69
2022/03/06 00:02:39;;;;;;;;;98.25;68.75;;;;;8.08;72.77;101808.22;5009955;28;45653;-69
2022/03/06 00:05:05;;;;;;;;;89.33;62.00;;;;;8.05;73.45;101807.44;5009719;28;45522;-69
2022/03/06 00:07:31;;;;;;;;;87.75;63.25;;;;;8.01;73.68;101809.22;5009145;28;47275;-69
2022/03/06 00:09:56;;;;;;;;;96.00;65.50;;;;;7.99;73.21;101813.63;5013371;28;45462;-69
2022/03/06 00:12:22;;;;;;;;;89.00;67.00;;;;;7.97;74.01;101812.75;5010338;28;45425;-69
2022/03/06 00:14:47;;;;;;;;;95.75;68.50;;;;;7.96;72.04;101818.03;5009979;28;45274;-69
2022/03/06 00:17:13;;;;;;;;;95.25;72.00;;;;;7.90;73.99;101813.75;5009237;28;46935;-69
2022/03/06 00:19:38;;;;;;;;;93.50;66.00;;;;;7.87;74.39;101816.41;5010070;28;45420;-69
2022/03/06 00:22:04;;;;;;;;;86.67;62.67;;;;;7.87;73.54;101823.41;5012176;28;45436;-69
2022/03/06 00:24:29;;;;;;;;;92.75;67.00;;;;;7.84;73.40;101821.69;5011522;28;45452;-69
2022/03/06 00:26:55;;;;;;;;;91.75;66.00;;;;;7.81;73.33;101825.22;5007663;28;46165;-69
2022/03/06 00:29:20;;;;;;;;;96.50;64.75;;;;;7.77;74.39;101826.13;5007716;28;45443;-69
2022/03/06 00:31:45;;;;;;;;;94.75;66.50;;;;;7.74;74.27;101822.72;5009178;28;46818;-69
2022/03/06 00:34:11;;;;;;;;;97.00;67.67;;;;;7.70;74.14;101819.25;5011018;28;45455;-69
2022/03/06 00:36:37;;;;;;;;;95.25;69.00;;;;;7.69;73.19;101827.16;5012148;28;46210;-69
2022/03/06 00:39:06;;;;;;;;;92.00;69.00;;;;;7.65;73.91;101823.69;5012948;28;45404;-69
2022/03/06 00:41:31;;;;;;;;;91.25;68.00;;;;;7.62;74.60;101825.47;5016491;28;45318;-69
2022/03/06 00:43:57;;;;;;;;;86.00;65.50;;;;;7.60;73.96;101825.50;5012447;28;45668;-69
2022/03/06 00:46:22;;;;;;;;;95.00;67.75;;;;;7.57;74.13;101815.97;5012357;28;46200;-69
2022/03/06 00:48:48;;;;;;;;;86.00;64.75;;;;;7.58;74.70;101822.91;5016975;28;45271;-69
2022/03/06 00:51:15;;;;;;;;;89.00;66.25;;;;;7.57;74.03;101821.19;5013347;28;45408;-69
2022/03/06 00:53:42;;;;;;;;;86.00;62.25;;;;;7.58;73.95;101814.22;5012687;28;45318;-69
2022/03/06 00:56:07;;;;;;;;;90.25;65.50;;;;;7.58;74.13;101820.31;5014374;28;45430;-69
2022/03/06 00:58:33;;;;;;;;;86.50;61.25;;;;;7.59;73.79;101819.41;5012418;28;45389;-69
2022/03/06 01:00:58;;;;;;;;;93.50;64.25;;;;;7.59;73.79;101826.41;5015367;28;45578;-69
2022/03/06 01:03:24;;;;;;;;;89.25;61.00;;;;;7.57;72.22;101822.94;4995464;28;45463;-69
2022/03/06 01:05:49;;;;;;;;;87.25;62.00;;;;;7.51;73.03;101828.22;5012975;28;46003;-69
2022/03/06 01:08:15;;;;;;;;;88.00;63.00;;;;;7.46;73.04;101830.03;5010441;28;45415;-69
2022/03/06 01:10:43;;;;;;;;;89.50;64.25;;;;;7.40;72.64;101822.28;5016215;28;45416;-69
2022/03/06 01:13:10;;;;;;;;;86.75;61.75;;;;;7.36;72.50;101831.03;5026016;28;45333;-69
2022/03/06 01:15:36;;;;;;;;;87.00;64.00;;;;;7.33;72.67;101837.19;5016448;28;45415;-69
2022/03/06 01:18:03;;;;;;;;;81.25;61.75;;;;;7.27;72.15;101834.66;5016832;28;45327;-69
2022/03/06 01:20:29;;;;;;;;;87.00;59.25;;;;;7.23;71.66;101836.41;5016323;28;45439;-69
2022/03/06 01:22:54;;;;;;;;;82.67;56.33;;;;;7.18;72.25;101832.13;5016217;28;45362;-69
2022/03/06 01:25:20;;;;;;;;;86.00;63.25;;;;;7.14;71.75;101836.53;5016009;28;45442;-69
2022/03/06 01:27:46;;;;;;;;;86.75;62.50;;;;;7.09;71.35;101830.47;5015066;28;45262;-69
2022/03/06 01:30:15;;;;;;;;;82.50;60.00;;;;;7.04;71.21;101832.28;5016361;28;45332;-69
2022/03/06 01:32:41;;;;;;;;;84.75;63.25;;;;;6.99;70.73;101823.63;5015543;28;45303;-69
2022/03/06 01:35:07;;;;;;;;;81.75;60.50;;;;;6.93;71.12;101821.06;5015418;28;45313;-70
2022/03/06 01:37:33;;;;;;;;;75.75;55.00;;;;;6.91;70.39;101822.84;5015188;28;45412;-70
2022/03/06 01:39:58;;;;;;;;;74.50;57.50;;;;;6.83;70.38;101822.91;5016554;28;45813;-69
2022/03/06 01:42:24;;;;;;;;;82.00;61.50;;;;;6.79;70.97;101831.69;5016358;28;45275;-69
2022/03/06 01:44:53;;;;;;;;;84.00;61.50;;;;;6.75;70.29;101830.84;5016096;28;45339;-69
2022/03/06 01:47:35;;;;;;;;;80.00;61.00;;;;;6.71;70.54;101828.25;5010737;28;45758;-70
2022/03/06 01:50:02;;;;;;;;;79.75;61.00;;;;;6.67;70.44;101830.03;5011670;28;45266;-69
2022/03/06 01:52:27;;;;;;;;;84.00;56.50;;;;;6.63;70.55;101830.97;5011134;28;45459;-69
2022/03/06 01:54:53;;;;;;;;;81.00;59.67;;;;;6.61;70.32;101830.09;5015317;28;48395;-69
2022/03/06 01:57:18;;;;;;;;;80.25;56.25;;;;;6.58;70.64;101827.53;5012447;28;45612;-69
2022/03/06 01:59:44;;;;;;;;;81.75;59.50;;;;;6.56;70.61;101833.63;5011406;28;45354;-69
2022/03/06 02:02:09;;;;;;;;;80.25;62.25;;;;;6.52;70.66;101827.56;5014937;28;45443;-69
2022/03/06 02:04:34;;;;;;;;;79.25;56.75;;;;;6.49;70.13;101825.84;5011461;28;45538;-69
2022/03/06 02:07:00;;;;;;;;;80.00;61.00;;;;;6.45;69.85;101831.97;5014987;28;45470;-69
2022/03/06 02:09:27;;;;;;;;;85.33;61.67;;;;;6.41;70.90;101837.22;5016241;28;45479;-69
2022/03/06 02:12:26;;;;;;;;;82.75;59.75;;;;;6.39;70.01;101828.56;5015082;28;45501;-69
2022/03/06 02:14:45;;;;;;;;;74.75;59.00;;;;;6.33;69.97;101834.69;5009076;28;46086;-69
2022/03/06 02:17:10;;;;;;;;;86.25;62.00;;;;;6.29;70.28;101835.59;5010763;28;45428;-69
2022/03/06 02:19:51;;;;;;;;;76.00;57.75;;;;;6.23;70.07;101833.03;5010892;28;45336;-69
2022/03/06 02:22:17;;;;;;;;;81.75;59.50;;;;;6.18;70.14;101833.06;5011467;28;45451;-69
2022/03/06 02:24:42;;;;;;;;;76.25;59.50;;;;;6.14;70.15;101833.94;4996975;28;46202;-69
2022/03/06 02:27:07;;;;;;;;;78.67;59.67;;;;;6.11;70.17;101835.72;5011803;28;45413;-69
2022/03/06 02:29:33;;;;;;;;;79.67;56.33;;;;;6.08;70.06;101833.13;5010824;28;45403;-69
2022/03/06 02:32:00;;;;;;;;;82.50;59.75;;;;;6.04;70.45;101828.81;5010774;28;45508;-69
2022/03/06 02:34:28;;;;;;;;;81.25;59.50;;;;;5.99;70.56;101840.13;5010397;28;45586;-69
2022/03/06 02:36:53;;;;;;;;;84.50;61.75;;;;;5.96;70.16;101828.88;5014895;28;47790;-69
2022/03/06 02:39:24;;;;;;;;;84.75;62.50;;;;;5.90;69.90;101834.97;5015474;28;45467;-69
2022/03/06 02:41:49;;;;;;;;;77.50;57.75;;;;;5.86;70.33;101825.41;5010917;28;45424;-69
2022/03/06 02:44:14;;;;;;;;;80.67;57.00;;;;;5.84;70.08;101839.31;5010188;28;50565;-69
2022/03/06 02:46:40;;;;;;;;;81.67;61.00;;;;;5.78;69.62;101834.16;5009896;28;57496;-69
2022/03/06 02:49:05;;;;;;;;;74.67;58.67;;;;;5.73;70.15;101831.56;5014373;28;45412;-69
2022/03/06 02:51:30;;;;;;;;;84.50;61.00;;;;;5.70;70.54;101837.69;5014423;28;45451;-69
2022/03/06 02:53:56;;;;;;;;;82.33;61.00;;;;;5.67;70.42;101826.38;5011053;28;45958;-69
2022/03/06 02:56:21;;;;;;;;;78.75;56.25;;;;;5.63;70.57;101830.75;5011141;28;45545;-69
2022/03/06 02:58:46;;;;;;;;;82.67;60.67;;;;;5.61;70.45;101834.25;5011920;28;45729;-69
2022/03/06 03:01:12;;;;;;;;;82.00;59.33;;;;;5.57;70.92;101832.53;5011433;28;45404;-69
2022/03/06 03:03:39;;;;;;;;;85.50;60.00;;;;;5.54;70.50;101835.16;5013096;28;46180;-69
2022/03/06 03:06:06;;;;;;;;;80.75;62.50;;;;;5.49;70.42;101829.97;5010614;28;45784;-69
2022/03/06 03:08:32;;;;;;;;;82.75;60.25;;;;;5.45;70.80;101833.44;5014397;28;45318;-69
2022/03/06 03:10:57;;;;;;;;;81.75;59.00;;;;;5.41;70.71;101837.81;5010427;28;45277;-69
2022/03/06 03:13:23;;;;;;;;;84.25;59.75;;;;;5.36;71.46;101836.94;5013461;28;46050;-70
2022/03/06 03:15:48;;;;;;;;;76.00;58.67;;;;;5.34;71.34;101833.50;5014405;28;45392;-69
2022/03/06 03:18:13;;;;;;;;;90.00;60.67;;;;;5.32;70.61;101839.56;5011152;28;45389;-69
2022/03/06 03:20:39;;;;;;;;;75.67;58.67;;;;;5.28;70.63;101838.75;5009745;28;45376;-68
2022/03/06 03:23:04;;;;;;;;;66.50;52.00;;;;;5.25;70.81;101849.16;5009416;28;45360;-69
2022/03/06 03:25:30;;;;;;;;;82.25;57.75;;;;;5.22;70.39;101847.44;5010697;28;45559;-69
2022/03/06 03:27:55;;;;;;;;;75.50;57.00;;;;;5.19;70.82;101846.56;5013528;28;45526;-69
2022/03/06 03:30:20;;;;;;;;;81.33;60.33;;;;;5.15;71.17;101842.25;5011389;28;45364;-69
2022/03/06 03:32:46;;;;;;;;;79.75;55.75;;;;;5.11;70.93;101846.56;5009854;28;45517;-70
2022/03/06 03:35:11;;;;;;;;;81.75;57.75;;;;;5.07;70.69;101844.88;5009367;28;45293;-69
2022/03/06 03:37:37;;;;;;;;;78.75;57.25;;;;;5.02;70.55;101843.16;5009898;28;45367;-70
2022/03/06 03:40:04;;;;;;;;;79.75;57.00;;;;;4.98;70.55;101847.50;5012906;28;46940;-70
2022/03/06 03:42:29;;;;;;;;;77.25;58.25;;;;;4.92;70.70;101845.78;5011632;28;45595;-69
2022/03/06 03:44:55;;;;;;;;;81.00;60.00;;;;;4.87;71.09;101850.13;5014188;28;45383;-70
2022/03/06 03:47:20;;;;;;;;;76.00;53.00;;;;;4.82;71.08;101854.47;5009887;28;45410;-70
2022/03/06 03:49:46;;;;;;;;;78.75;58.50;;;;;4.78;71.29;101847.53;5009652;28;45329;-69
2022/03/06 03:52:11;;;;;;;;;78.50;59.75;;;;;4.76;70.46;101849.28;5011436;28;45463;-70
2022/03/06 03:54:37;;;;;;;;;83.75;59.50;;;;;4.71;70.84;101853.63;5012352;28;45309;-70
2022/03/06 03:57:02;;;;;;;;;85.25;61.00;;;;;4.67;71.10;101851.88;5009941;28;45785;-70
2022/03/06 03:59:28;;;;;;;;;79.00;57.25;;;;;4.65;71.51;101853.63;5009589;28;45364;-69
2022/03/06 04:01:53;;;;;;;;;75.50;55.00;;;;;4.63;71.29;101850.13;5009550;28;46114;-69
2022/03/06 04:04:19;;;;;;;;;76.75;57.25;;;;;4.60;71.69;101852.75;5009760;28;45405;-70
2022/03/06 04:06:44;;;;;;;;;79.75;58.25;;;;;4.57;71.82;101853.63;5013309;28;45463;-69
2022/03/06 04:09:09;;;;;;;;;76.67;56.67;;;;;4.54;71.33;101851.03;5010184;28;45412;-70
2022/03/06 04:11:35;;;;;;;;;82.00;60.00;;;;;4.51;71.11;101861.44;5011406;28;51698;-69
2022/03/06 04:14:00;;;;;;;;;80.00;60.00;;;;;4.46;71.95;101870.97;5017101;28;45481;-70
2022/03/06 04:16:26;;;;;;;;;79.50;60.75;;;;;4.46;72.67;101863.16;5012938;28;45408;-70
2022/03/06 04:18:51;;;;;;;;;75.25;56.00;;;;;4.45;72.15;101875.31;5017603;28;45353;-70
2022/03/06 04:21:16;;;;;;;;;78.50;59.75;;;;;4.45;72.22;101872.72;5012851;28;45991;-70
2022/03/06 04:23:42;;;;;;;;;81.00;61.00;;;;;4.41;72.24;101870.97;5012863;28;45393;-70
2022/03/06 04:26:07;;;;;;;;;74.50;56.50;;;;;4.42;71.93;101877.03;5012733;28;45344;-70
2022/03/06 04:28:32;;;;;;;;;80.25;59.75;;;;;4.37;72.17;101877.03;5012892;28;45503;-70
2022/03/06 04:30:57;;;;;;;;;79.67;61.00;;;;;4.32;72.64;101880.50;5016225;28;45416;-70
2022/03/06 04:33:23;;;;;;;;;81.00;59.00;;;;;4.34;72.66;101889.19;5012931;28;45422;-70
2022/03/06 04:35:48;;;;;;;;;82.50;59.25;;;;;4.31;72.48;101883.97;4999363;28;45436;-70
2022/03/06 04:38:14;;;;;;;;;79.67;58.67;;;;;4.31;72.28;101886.56;5012398;28;46966;-70
2022/03/06 04:40:39;;;;;;;;;72.25;59.25;;;;;4.29;72.30;101894.38;5012526;28;45398;-70
2022/03/06 04:43:04;;;;;;;;;74.00;59.75;;;;;4.26;73.07;101894.38;5016315;28;45567;-70
2022/03/06 04:45:30;;;;;;;;;79.50;59.50;;;;;4.25;72.96;101892.63;5016976;28;45309;-70
2022/03/06 04:47:55;;;;;;;;;85.25;61.75;;;;;4.23;72.85;101898.69;5016503;28;45395;-70
2022/03/06 04:50:20;;;;;;;;;83.00;60.33;;;;;4.21;73.15;101890.91;5012197;28;47537;-70
2022/03/06 04:52:46;;;;;;;;;79.00;56.50;;;;;4.21;73.03;101900.44;5012059;28;45545;-70
2022/03/06 04:55:11;;;;;;;;;74.33;57.33;;;;;4.21;72.79;101897.84;5014323;28;45414;-70
2022/03/06 04:57:37;;;;;;;;;78.00;58.00;;;;;4.19;73.25;101893.50;5015235;28;45592;-70
2022/03/06 05:00:04;;;;;;;;;78.75;59.25;;;;;4.19;73.60;101898.72;5012935;28;46080;-70
2022/03/06 05:02:29;;;;;;;;;77.00;58.75;;;;;4.16;73.46;101903.88;4997894;28;45833;-70
2022/03/06 05:04:55;;;;;;;;;77.67;60.00;;;;;4.14;73.12;101896.97;5012531;28;45325;-70
2022/03/06 05:07:20;;;;;;;;;77.75;58.25;;;;;4.09;73.00;101903.88;5012777;28;45364;-70
2022/03/06 05:09:45;;;;;;;;;79.25;59.00;;;;;4.07;73.25;101900.41;5016182;28;47558;-70
2022/03/06 05:12:11;;;;;;;;;78.67;57.00;;;;;4.03;73.76;101906.47;5013121;28;45620;-70
2022/03/06 05:14:36;;;;;;;;;80.50;60.75;;;;;4.01;73.41;101902.97;5011874;28;45265;-70
2022/03/06 05:17:02;;;;;;;;;77.25;58.75;;;;;3.99;73.98;101904.72;5011630;28;45628;-70
2022/03/06 05:19:27;;;;;;;;;80.00;60.75;;;;;3.98;74.01;101905.59;5012036;28;46142;-70
2022/03/06 05:21:52;;;;;;;;;81.33;59.00;;;;;3.96;73.84;101917.72;5016096;28;45528;-70
2022/03/06 05:24:18;;;;;;;;;79.00;57.67;;;;;3.92;74.10;101919.44;5012134;28;45718;-70
2022/03/06 05:26:43;;;;;;;;;74.50;54.25;;;;;3.92;74.42;101922.06;5011749;28;45567;-70
2022/03/06 05:29:08;;;;;;;;;79.33;56.33;;;;;3.90;73.76;101916.81;5010398;28;46118;-70
2022/03/06 05:31:34;;;;;;;;;77.00;60.00;;;;;3.89;74.49;101911.63;5014037;28;45504;-70
2022/03/06 05:33:59;;;;;;;;;76.00;60.25;;;;;3.85;73.90;101913.34;5013654;28;45856;-70
2022/03/06 05:36:24;;;;;;;;;76.00;59.67;;;;;3.84;74.35;101915.94;5012834;28;45345;-70
2022/03/06 05:38:49;;;;;;;;;83.00;61.67;;;;;3.81;74.25;101910.72;5011259;28;46354;-70
2022/03/06 05:41:15;;;;;;;;;80.00;63.33;;;;;3.81;74.64;101911.63;5012406;28;45635;-70
2022/03/06 05:43:40;;;;;;;;;81.50;61.50;;;;;3.79;74.07;101917.66;5013257;28;45511;-70
2022/03/06 05:46:06;;;;;;;;;79.50;60.25;;;;;3.77;74.38;101914.19;5015428;28;45453;-70
2022/03/06 05:48:31;;;;;;;;;74.33;59.67;;;;;3.72;74.20;101916.78;5015114;28;51004;-70
2022/03/06 05:50:56;;;;;;;;;84.67;60.67;;;;;3.69;74.73;101921.06;5011782;28;45281;-70
2022/03/06 05:53:22;;;;;;;;;80.75;61.25;;;;;3.70;73.89;101930.59;5011122;28;45521;-70
2022/03/06 05:55:48;;;;;;;;;83.00;61.00;;;;;3.68;74.45;101933.22;5011538;28;45388;-71
2022/03/06 05:58:13;;;;;;;;;84.50;61.75;;;;;3.65;74.50;101938.38;5013022;28;45806;-70
2022/03/06 06:00:38;;;;;;;;;86.33;62.00;;;;;3.64;74.85;101937.50;5014009;28;45585;-70
2022/03/06 06:03:03;;;;;;;;;82.50;61.00;;;;;3.62;74.65;101944.44;5010194;28;45463;-71
2022/03/06 06:05:29;;;;;;;;;87.67;62.33;;;;;3.60;74.21;101938.38;5010969;28;48621;-71
2022/03/06 06:07:54;;;;;;;;;80.25;61.25;;;;;3.60;75.20;101953.97;5011182;28;46113;-71
2022/03/06 06:10:20;;;;;;;;;88.00;62.33;;;;;3.57;75.07;101948.75;5016857;28;45543;-70
2022/03/06 06:12:45;;;;;;;;;78.00;60.50;;;;;3.58;75.20;101941.81;5014315;28;45457;-70
2022/03/06 06:15:11;;;;;;;;;81.75;62.00;;;;;3.56;74.52;101947.03;5015163;28;45476;-71
2022/03/06 06:17:37;;;;;;;;;87.00;63.25;;;;;3.55;74.65;101960.88;5013959;28;47470;-71
2022/03/06 06:20:04;;;;;;;;;77.00;60.25;;;;;3.52;75.20;101955.66;5014646;28;45416;-70
2022/03/06 06:22:31;;;;;;;;;78.75;61.00;;;;;3.51;75.18;101950.47;5015056;28;45456;-71
2022/03/06 06:24:56;;;;;;;;;86.75;64.75;;;;;3.53;75.17;101956.53;5014591;28;45490;-70
2022/03/06 06:27:22;;;;;;;;;86.00;62.50;;;;;3.54;75.48;101960.84;5015609;28;45290;-70
2022/03/06 06:29:47;;;;;;;;;84.00;62.00;;;;;3.55;75.13;101965.19;5014418;28;45247;-70
2022/03/06 06:32:13;;;;;;;;;87.00;58.00;;;;;3.55;74.88;101960.88;5013437;28;45422;-70
2022/03/06 06:34:38;;;;;;;;;78.75;60.50;;;;;3.53;75.04;101966.91;5013052;28;45619;-70
2022/03/06 06:37:04;;;;;;;;;77.75;60.50;;;;;3.55;75.24;101972.97;5013190;28;46115;-70
2022/03/06 06:39:30;;;;;;;;;85.50;60.25;;;;;3.56;75.06;101967.81;5014224;28;45386;-70
2022/03/06 06:41:55;;;;;;;;;80.75;60.75;;;;;3.58;74.96;101967.81;5011317;28;45399;-70
2022/03/06 06:44:21;;;;;;;;;83.25;61.50;;;;;3.59;74.56;101974.75;5013757;28;45319;-71
2022/03/06 06:46:46;;;;;;;;;85.50;63.00;;;;;3.62;75.22;101972.19;5012340;28;46202;-71
2022/03/06 06:49:11;;;;;;;;;84.67;63.67;;;;;3.64;75.18;101983.44;5012115;28;53804;-70
2022/03/06 06:51:38;;;;;;;;;85.00;61.67;;;;;3.70;74.79;101988.66;5014651;28;45457;-71
2022/03/06 06:54:04;;;;;;;;;80.25;57.25;;;;;3.73;74.74;101991.28;5010670;28;45353;-70
2022/03/06 06:56:29;;;;;;;;;87.50;61.25;;;;;3.77;74.93;101987.00;5010386;28;46327;-70
2022/03/06 06:58:55;;;;;;;;;85.25;64.50;;;;;3.81;74.69;101991.31;5009192;28;45516;-70
2022/03/06 07:01:20;;;;;;;;;81.33;62.67;;;;;3.86;74.64;101987.91;5011903;28;45746;-70
2022/03/06 07:03:46;;;;;;;;;84.50;62.50;;;;;3.91;74.07;101990.50;5011408;28;45360;-69
2022/03/06 07:06:12;;;;;;;;;84.25;61.25;;;;;3.91;74.34;101999.22;5015355;28;46167;-71
2022/03/06 07:08:37;;;;;;;;;84.25;62.50;;;;;3.97;74.52;102000.06;5010011;28;45463;-70
2022/03/06 07:11:02;;;;;;;;;79.67;60.33;;;;;4.04;74.06;102000.13;5010128;28;45369;-71
2022/03/06 07:13:28;;;;;;;;;75.67;58.67;;;;;4.11;74.20;101993.19;5009632;28;45293;-70
2022/03/06 07:15:53;;;;;;;;;83.33;65.00;;;;;4.23;73.97;101995.88;5013249;28;46149;-70
2022/03/06 07:18:18;;;;;;;;;80.50;59.50;;;;;4.36;74.09;101999.34;5014276;28;45515;-70
2022/03/06 07:20:44;;;;;;;;;87.25;63.75;;;;;4.51;73.68;102007.22;5009474;28;45479;-70
2022/03/06 07:23:09;;;;;;;;;82.00;60.50;;;;;4.62;73.23;102007.22;5013795;28;45617;-69
2022/03/06 07:25:35;;;;;;;;;85.75;63.00;;;;;4.73;73.17;102010.72;5013362;28;45454;-71
2022/03/06 07:28:00;;;;;;;;;85.00;63.00;;;;;4.86;72.89;102006.41;5013368;28;45431;-71
2022/03/06 07:30:25;;;;;;;;;89.75;63.25;;;;;5.13;73.01;102005.53;5013671;28;45478;-70
2022/03/06 07:32:52;;;;;;;;;84.33;57.67;;;;;5.53;72.51;102008.97;5004233;28;45520;-70
2022/03/06 07:35:19;;;;;;;;;86.00;62.25;;;;;5.82;71.58;102014.13;5011523;28;45395;-70
2022/03/06 07:37:45;;;;;;;;;76.25;59.00;;;;;6.07;70.96;102017.56;5011297;28;45745;-71
2022/03/06 07:40:13;;;;;;;;;82.75;59.75;;;;;6.27;70.36;102020.97;5012660;28;45454;-69
2022/03/06 07:42:39;;;;;;;;;82.75;57.50;;;;;6.53;69.56;102023.44;5013747;28;45298;-70
2022/03/06 07:45:05;;;;;;;;;75.75;54.00;;;;;7.03;69.16;102029.19;5010036;28;45402;-71
2022/03/06 07:47:30;;;;;;;;;81.50;61.25;;;;;7.39;68.12;102025.41;5009752;28;45311;-70
2022/03/06 07:49:56;;;;;;;;;77.25;56.25;;;;;7.93;68.03;102027.47;5012512;28;45360;-70
2022/03/06 07:52:21;;;;;;;;;82.25;61.25;;;;;8.55;66.66;102028.47;5012819;28;45423;-71
2022/03/06 07:54:47;;;;;;;;;81.00;59.00;;;;;9.17;65.63;102023.16;5012114;28;46197;-71
2022/03/06 07:57:12;;;;;;;;;83.33;61.33;;;;;9.90;64.77;102025.31;5011566;28;49038;-71
2022/03/06 07:59:38;;;;;;;;;75.75;58.25;;;;;10.83;63.48;102027.75;5014313;28;45320;-71
2022/03/06 08:02:03;;;;;;;;;76.00;57.25;;;;;11.70;63.05;102032.59;5016061;28;45711;-70
2022/03/06 08:04:29;;;;;;;;;78.75;59.00;;;;;12.42;61.08;102027.91;5013373;28;46472;-71
2022/03/06 08:06:54;;;;;;;;;77.00;60.25;;;;;13.26;59.56;102042.00;5012339;28;45471;-70
2022/03/06 08:09:19;;;;;;;;;71.25;53.75;;;;;14.06;58.03;102042.72;5013540;28;45341;-71
2022/03/06 08:11:45;;;;;;;;;74.25;56.00;;;;;14.89;57.09;102036.94;5013642;28;45301;-70
2022/03/06 08:14:10;;;;;;;;;70.67;52.33;;;;;15.32;55.51;102043.97;5014514;28;45479;-70
2022/03/06 08:16:37;;;;;;;;;78.75;57.00;;;;;16.04;54.18;102038.22;5013423;28;45376;-71
2022/03/06 08:19:02;;;;;;;;;66.50;51.75;;;;;16.80;52.90;102033.78;5005220;28;45364;-70
2022/03/06 08:21:29;;;;;;;;;70.75;53.25;;;;;17.70;51.86;102047.88;5013716;28;45528;-71
2022/03/06 08:23:54;;;;;;;;;77.50;55.00;;;;;18.59;49.33;102047.59;5022765;28;46219;-71
2022/03/06 08:26:20;;;;;;;;;73.25;52.50;;;;;19.25;48.92;102048.22;5014584;28;45686;-71
2022/03/06 08:28:45;;;;;;;;;72.25;54.00;;;;;19.90;47.48;102050.59;5013346;28;45365;-71
2022/03/06 08:31:11;;;;;;;;;66.00;50.75;;;;;20.53;45.59;102047.53;5014688;28;45452;-71
2022/03/06 08:33:36;;;;;;;;;69.50;53.50;;;;;21.32;44.73;102044.13;5014416;28;46296;-70
2022/03/06 08:36:03;;;;;;;;;64.00;50.25;;;;;22.12;45.66;102054.72;5016479;28;45609;-71
2022/03/06 08:38:28;;;;;;;;;65.25;52.00;;;;;22.75;43.55;102058.22;4996136;28;45503;-71
2022/03/06 08:40:53;;;;;;;;;68.75;51.50;;;;;23.50;41.23;102050.78;5014645;28;45269;-71
2022/03/06 08:43:19;;;;;;;;;70.00;53.50;;;;;24.33;40.20;102052.38;5019737;28;46783;-71
2022/03/06 08:45:44;;;;;;;;;68.00;51.00;;;;;24.84;38.43;102051.81;5012374;28;52989;-71
2022/03/06 08:48:10;;;;;;;;;66.50;49.75;;;;;25.54;39.11;102047.75;5013622;28;45471;-70
2022/03/06 08:50:35;;;;;;;;;58.00;46.00;;;;;26.29;36.28;102047.47;5010948;28;45420;-70
2022/03/06 08:53:01;;;;;;;;;112.75;96.00;;;;;26.63;35.87;102050.72;5012243;28;45515;-69
2022/03/06 08:55:26;;;;;;;;;64.00;49.25;;;;;27.18;34.91;102045.69;5011337;28;45450;-70
2022/03/06 08:57:51;;;;;;;;;66.00;48.75;;;;;27.79;34.36;102042.63;5013871;28;45374;-69
2022/03/06 09:00:17;;;;;;;;;62.00;48.33;;;;;28.47;33.08;102052.34;5016322;28;45479;-69
2022/03/06 09:02:42;;;;;;;;;66.75;49.50;;;;;29.29;32.56;102052.19;5014486;28;46257;-70
2022/03/06 09:05:08;;;;;;;;;62.00;49.00;;;;;29.93;32.04;102052.00;5014870;28;45484;-69
2022/03/06 09:07:33;;;;;;;;;61.75;47.50;;;;;30.16;29.59;102053.16;5017247;28;45539;-69
2022/03/06 09:09:59;;;;;;;;;58.75;43.75;;;;;30.04;28.89;102054.41;5017593;28;45301;-69
2022/03/06 09:12:26;;;;;;;;;52.25;41.75;;;;;30.30;27.79;102063.38;5016834;28;45860;-69
2022/03/06 09:14:55;;;;;;;;;56.75;43.75;;;;;30.65;28.32;102069.63;5017359;28;45917;-69
2022/03/06 09:17:20;;;;;;;;;54.75;44.00;;;;;30.89;27.87;102060.69;5017715;28;45273;-69
2022/03/06 09:19:46;;;;;;;;;49.00;38.75;;;;;30.92;26.63;102066.66;5017334;28;45475;-69
2022/03/06 09:22:11;;;;;;;;;51.25;39.50;;;;;31.15;27.50;102066.84;5018228;28;46053;-69
2022/03/06 09:24:36;;;;;;;;;53.25;41.50;;;;;31.69;26.25;102059.03;5017292;28;45645;-69
2022/03/06 09:27:02;;;;;;;;;53.25;42.75;;;;;31.92;25.92;102066.50;5016970;28;45510;-69
2022/03/06 09:29:27;;;;;;;;;52.75;42.00;;;;;32.06;25.00;102062.22;5017320;28;45522;-69
2022/03/06 09:31:53;;;;;;;;;53.75;42.50;;;;;32.35;25.35;102067.00;5016167;28;45854;-69
2022/03/06 09:34:18;;;;;;;;;51.75;42.00;;;;;32.53;24.61;102061.34;5012600;28;45571;-69
2022/03/06 09:36:43;;;;;;;;;54.75;42.25;;;;;32.57;24.82;102070.84;5013902;28;45476;-69
2022/03/06 09:39:09;;;;;;;;;57.25;43.75;;;;;32.78;25.08;102062.88;5016334;28;45491;-69
2022/03/06 09:41:40;;;;;;;;;54.00;41.00;;;;;32.96;24.73;102071.66;5010750;28;45459;-69
2022/03/06 09:44:10;;;;;;;;;52.00;41.50;;;;;32.95;23.35;102069.13;5014151;28;45829;-69
2022/03/06 09:46:36;;;;;;;;;51.25;39.50;;;;;32.98;22.93;102079.63;5011795;28;45406;-69
2022/03/06 09:49:03;;;;;;;;;55.50;40.50;;;;;33.04;23.32;102084.34;5015939;28;45377;-68
2022/03/06 09:51:40;;;;;;;;;52.25;40.00;;;;;33.15;23.04;102077.63;5015151;28;45700;-69
2022/03/06 09:54:08;;;;;;;;;55.00;39.75;;;;;32.82;22.12;102085.16;5013524;28;45528;-70
2022/03/06 09:56:34;;;;;;;;;52.00;40.75;;;;;32.61;23.12;102083.06;5015669;28;45834;-70
2022/03/06 09:59:00;;;;;;;;;54.00;42.00;;;;;32.24;21.63;102081.84;5015350;28;45593;-70
2022/03/06 10:01:25;;;;;;;;;49.75;38.00;;;;;31.52;22.61;102083.69;5015229;28;45942;-69
2022/03/06 10:03:50;;;;;;;;;45.25;36.25;;;;;31.17;22.62;102086.53;5014836;28;45498;-70
2022/03/06 10:06:16;;;;;;;;;48.25;39.25;;;;;30.55;22.37;102090.63;5022083;28;45788;-70
2022/03/06 10:08:41;;;;;;;;;49.75;38.25;;;;;29.97;22.44;102086.75;5021378;28;45357;-70
2022/03/06 10:11:09;;;;;;;;;47.00;36.75;;;;;29.34;23.52;102078.81;5015954;28;58700;-70
2022/03/06 10:13:40;;;;;;;;;44.25;34.50;;;;;28.94;24.05;102090.09;5016549;28;45999;-70
2022/03/06 10:16:19;;;;;;;;;44.50;35.50;;;;;28.55;23.22;102088.44;5016554;28;45513;-70
2022/03/06 10:18:50;;;;;;;;;38.75;32.00;;;;;28.11;23.62;102091.88;5016224;28;45517;-70
2022/03/06 10:21:18;;;;;;;;;44.25;35.25;;;;;27.68;23.29;102090.56;5015324;28;46631;-70
2022/03/06 10:23:46;;;;;;;;;27.00;24.50;;;;;27.22;23.73;102087.59;5016285;28;45393;-70
2022/03/06 10:26:15;;;;;;;;;47.25;36.00;;;;;26.90;23.49;102092.38;5017157;28;45277;-70
2022/03/06 10:28:44;;;;;;;;;44.25;34.75;;;;;26.54;24.16;102087.44;5017814;28;45371;-70
2022/03/06 10:31:09;;;;;;;;;42.75;33.00;;;;;26.43;23.52;102082.16;4996482;28;47514;-70
2022/03/06 10:33:34;;;;;;;;;41.50;33.00;;;;;26.27;23.86;102082.63;5013099;28;45372;-70
2022/03/06 10:36:02;;;;;;;;;43.50;34.00;;;;;26.03;23.78;102082.94;5014237;28;45680;-70
2022/03/06 10:38:30;;;;;;;;;35.50;31.00;;;;;25.36;23.42;102079.78;5001479;28;45551;-70
2022/03/06 10:41:03;;;;;;;;;36.75;29.75;;;;;24.69;24.52;102079.00;5010504;28;46246;-70
2022/03/06 10:43:33;;;;;;;;;41.50;30.25;;;;;24.03;24.18;102079.84;5013790;28;45972;-70
2022/03/06 10:46:10;;;;;;;;;40.50;32.00;;;;;23.38;25.40;102092.81;5014002;28;45535;-70
2022/03/06 10:48:37;;;;;;;;;32.00;30.25;;;;;22.89;24.86;102098.31;5013228;28;45302;-70
2022/03/06 10:51:05;;;;;;;;;46.50;38.00;;;;;22.36;24.90;102090.47;5012696;28;46191;-70
2022/03/06 10:53:30;;;;;;;;;34.00;30.75;;;;;21.84;25.10;102090.56;5013926;28;45459;-70
2022/03/06 10:56:12;;;;;;;;;31.00;26.75;;;;;21.34;24.99;102090.34;5010271;28;45320;-70
2022/03/06 10:58:40;;;;;;;;;31.75;29.00;;;;;20.93;25.31;102085.03;5009478;28;45642;-70
2022/03/06 11:01:06;;;;;;;;;26.75;20.75;;;;;20.58;25.35;102092.66;5013008;28;46016;-70
2022/03/06 11:03:34;;;;;;;;;27.25;24.50;;;;;20.02;25.35;102097.88;5011860;28;45500;-69
2022/03/06 11:06:01;;;;;;;;;24.75;22.75;;;;;19.63;25.59;102094.91;5011216;28;45444;-69
2022/03/06 11:08:27;;;;;;;;;32.75;27.00;;;;;19.31;25.59;102089.63;5013879;28;45423;-69